createdAt,value
2018-01-22T00:00:13.722Z,4.85
2018-01-22T00:02:40.507Z,4.85
2018-01-22T00:05:07.243Z,4.00
2018-01-22T00:07:33.946Z,4.00
2018-01-22T00:10:00.658Z,3.50
2018-01-22T00:12:27.350Z,3.12
2018-01-22T00:14:54.787Z,3.62
2018-01-22T00:17:21.457Z,3.30
2018-01-22T00:19:48.941Z,3.10
2018-01-22T00:22:15.617Z,2.95
2018-01-22T00:24:42.345Z,2.60
2018-01-22T00:27:10.656Z,2.35
2018-01-22T00:29:37.389Z,2.95
2018-01-22T00:32:04.042Z,3.10
2018-01-22T00:34:30.857Z,3.17
2018-01-22T00:36:58.598Z,3.37
2018-01-22T00:39:25.294Z,4.00
2018-01-22T00:41:52.128Z,3.60
2018-01-22T00:44:18.843Z,3.17
2018-01-22T00:46:45.530Z,3.75
2018-01-22T00:49:13.765Z,3.85
2018-01-22T00:51:40.532Z,4.22
2018-01-22T00:54:07.194Z,3.65
2018-01-22T00:56:33.982Z,4.40
2018-01-22T00:59:01.419Z,4.20
2018-01-22T01:01:28.085Z,4.37
2018-01-22T01:03:55.547Z,4.22
2018-01-22T01:06:22.975Z,4.20
2018-01-22T01:08:49.661Z,4.05
2018-01-22T01:11:16.386Z,4.00
2018-01-22T01:13:43.801Z,4.47
2018-01-22T01:16:10.502Z,4.03
2018-01-22T01:18:37.281Z,3.95
2018-01-22T01:21:03.941Z,4.70
2018-01-22T01:23:30.647Z,4.55
2018-01-22T01:25:57.357Z,5.45
2018-01-22T01:28:24.787Z,4.00
2018-01-22T01:30:51.478Z,4.55
2018-01-22T01:33:18.175Z,4.10
2018-01-22T01:35:44.864Z,4.70
2018-01-22T01:38:11.531Z,4.90
2018-01-22T01:40:38.250Z,4.30
2018-01-22T01:43:04.910Z,5.20
2018-01-22T01:45:31.616Z,4.80
2018-01-22T01:47:58.304Z,5.53
2018-01-22T01:50:24.975Z,5.50
2018-01-22T01:52:51.650Z,4.93
2018-01-22T01:55:20.206Z,5.30
2018-01-22T01:57:47.027Z,5.65
2018-01-22T02:00:13.752Z,5.72
2018-01-22T02:02:40.475Z,6.60
2018-01-22T02:05:07.893Z,5.50
2018-01-22T02:07:34.562Z,5.45
2018-01-22T02:10:01.331Z,6.15
2018-01-22T02:12:28.770Z,5.82
2018-01-22T02:14:55.461Z,5.57
2018-01-22T02:17:22.145Z,5.50
2018-01-22T02:19:48.835Z,5.97
2018-01-22T02:22:15.595Z,5.32
2018-01-22T02:24:42.347Z,5.97
2018-01-22T02:27:09.017Z,5.05
2018-01-22T02:29:35.698Z,5.47
2018-01-22T02:32:02.410Z,4.70
2018-01-22T02:34:29.097Z,5.37
2018-01-22T02:36:55.774Z,5.32
2018-01-22T02:39:22.471Z,5.80
2018-01-22T02:41:49.134Z,5.72
2018-01-22T02:44:15.810Z,5.65
2018-01-22T02:46:42.502Z,5.68
2018-01-22T02:49:09.205Z,4.87
2018-01-22T02:51:35.876Z,4.90
2018-01-22T02:54:03.329Z,5.90
2018-01-22T02:56:30.773Z,6.22
2018-01-22T02:58:57.449Z,5.57
2018-01-22T03:01:24.914Z,5.00
2018-01-22T03:03:51.601Z,4.95
2018-01-22T03:06:18.294Z,5.32
2018-01-22T03:08:45.730Z,5.12
2018-01-22T03:11:12.404Z,4.90
2018-01-22T03:13:40.211Z,6.75
2018-01-22T03:16:07.053Z,5.53
2018-01-22T03:18:35.803Z,5.28
2018-01-22T03:21:10.276Z,5.72
2018-01-22T03:23:37.087Z,6.10
2018-01-22T03:26:03.779Z,6.25
2018-01-22T03:28:30.699Z,5.82
2018-01-22T03:30:57.436Z,4.43
2018-01-22T03:33:25.176Z,4.15
2018-01-22T03:35:52.659Z,3.62
2018-01-22T03:38:19.344Z,4.30
2018-01-22T03:40:46.018Z,4.80
2018-01-22T03:43:13.474Z,3.95
2018-01-22T03:45:40.880Z,5.80
2018-01-22T03:48:07.585Z,4.95
2018-01-22T03:50:35.094Z,4.60
2018-01-22T03:53:01.903Z,4.90
2018-01-22T03:55:29.683Z,4.28
2018-01-22T03:57:56.396Z,4.93
2018-01-22T04:00:23.820Z,4.53
2018-01-22T04:02:50.486Z,3.83
2018-01-22T04:05:17.211Z,4.75
2018-01-22T04:07:43.869Z,4.15
2018-01-22T04:10:10.585Z,4.68
2018-01-22T04:12:37.306Z,4.40
2018-01-22T04:15:03.985Z,5.18
2018-01-22T04:17:30.704Z,4.75
2018-01-22T04:19:57.395Z,4.97
2018-01-22T04:22:24.099Z,4.70
2018-01-22T04:24:50.807Z,4.72
2018-01-22T04:27:17.533Z,4.30
2018-01-22T04:29:44.992Z,5.35
2018-01-22T04:32:12.461Z,4.72
2018-01-22T04:34:39.915Z,4.62
2018-01-22T04:37:07.296Z,5.70
2018-01-22T04:39:33.966Z,4.87
2018-01-22T04:42:00.646Z,4.78
2018-01-22T04:44:27.308Z,4.43
2018-01-22T04:46:54.718Z,4.40
2018-01-22T04:49:22.325Z,4.75
2018-01-22T04:51:49.846Z,5.18
2018-01-22T04:54:16.502Z,5.60
2018-01-22T04:56:43.195Z,4.40
2018-01-22T04:59:09.854Z,5.12
2018-01-22T05:01:36.514Z,5.22
2018-01-22T05:04:03.267Z,5.68
2018-01-22T05:06:29.918Z,6.65
2018-01-22T05:08:56.603Z,5.47
2018-01-22T05:11:29.225Z,5.90
2018-01-22T05:13:55.932Z,5.30
2018-01-22T05:16:22.684Z,4.72
2018-01-22T05:18:49.462Z,6.00
2018-01-22T05:21:16.155Z,4.87
2018-01-22T05:23:43.597Z,4.87
2018-01-22T05:26:10.403Z,4.70
2018-01-22T05:28:37.117Z,4.60
2018-01-22T05:31:03.873Z,4.55
2018-01-22T05:33:30.661Z,5.30
2018-01-22T05:35:57.377Z,4.97
2018-01-22T05:38:24.103Z,5.97
2018-01-22T05:40:50.900Z,5.93
2018-01-22T05:43:17.590Z,6.03
2018-01-22T05:45:44.302Z,5.70
2018-01-22T05:48:25.673Z,5.90
2018-01-22T05:50:52.487Z,6.50
2018-01-22T05:53:19.187Z,6.80
2018-01-22T05:55:47.833Z,6.75
2018-01-22T05:58:14.728Z,7.05
2018-01-22T06:00:41.534Z,6.80
2018-01-22T06:03:08.382Z,6.75
2018-01-22T06:05:36.120Z,5.85
2018-01-22T06:08:03.890Z,5.95
2018-01-22T06:10:30.657Z,5.60
2018-01-22T06:12:58.406Z,5.57
2018-01-22T06:15:31.110Z,5.93
2018-01-22T06:17:57.836Z,5.53
2018-01-22T06:20:24.560Z,5.03
2018-01-22T06:22:51.263Z,6.12
2018-01-22T06:25:17.945Z,5.82
2018-01-22T06:27:44.641Z,6.15
2018-01-22T06:30:18.329Z,6.30
2018-01-22T06:32:53.787Z,7.18
2018-01-22T06:35:20.515Z,6.87
2018-01-22T06:37:47.227Z,6.65
2018-01-22T06:40:13.909Z,7.03
2018-01-22T06:42:40.604Z,7.20
2018-01-22T06:45:08.039Z,6.78
2018-01-22T06:47:34.714Z,6.68
2018-01-22T06:50:01.366Z,6.57
2018-01-22T06:52:28.017Z,6.80
2018-01-22T06:54:54.735Z,6.10
2018-01-22T06:57:22.147Z,8.18
2018-01-22T06:59:48.816Z,7.03
2018-01-22T07:02:15.538Z,6.45
2018-01-22T07:04:42.262Z,7.25
2018-01-22T07:07:08.910Z,5.75
2018-01-22T07:09:35.562Z,7.68
2018-01-22T07:12:02.229Z,6.75
2018-01-22T07:14:28.896Z,6.82
2018-01-22T07:16:57.255Z,6.45
2018-01-22T07:19:24.274Z,7.25
2018-01-22T07:21:56.646Z,7.87
2018-01-22T07:24:23.379Z,7.45
2018-01-22T07:26:50.143Z,8.60
2018-01-22T07:29:16.798Z,10.35
2018-01-22T07:31:43.488Z,8.05
2018-01-22T07:34:10.224Z,8.45
2018-01-22T07:36:37.656Z,8.98
2018-01-22T07:39:04.419Z,10.15
2018-01-22T07:41:31.925Z,8.75
2018-01-22T07:43:58.594Z,9.35
2018-01-22T07:46:25.251Z,8.30
2018-01-22T07:48:51.993Z,9.05
2018-01-22T07:51:18.678Z,8.55
2018-01-22T07:53:45.363Z,9.20
2018-01-22T07:56:12.081Z,7.82
2018-01-22T07:58:38.759Z,8.30
2018-01-22T08:01:05.442Z,8.40
2018-01-22T08:03:32.191Z,7.03
2018-01-22T08:05:59.598Z,7.30
2018-01-22T08:08:26.307Z,6.68
2018-01-22T08:10:53.015Z,7.10
2018-01-22T08:13:20.401Z,6.53
2018-01-22T08:15:47.122Z,7.85
2018-01-22T08:18:14.654Z,7.62
2018-01-22T08:20:41.345Z,7.03
2018-01-22T08:23:08.046Z,8.50
2018-01-22T08:25:34.805Z,7.62
2018-01-22T08:28:02.264Z,6.87
2018-01-22T08:30:30.037Z,7.85
2018-01-22T08:32:58.363Z,7.57
2018-01-22T08:35:25.090Z,8.20
2018-01-22T08:37:51.777Z,8.15
2018-01-22T08:40:18.472Z,7.35
2018-01-22T08:42:45.178Z,7.12
2018-01-22T08:45:11.849Z,7.57
2018-01-22T08:47:38.557Z,7.90
2018-01-22T08:50:05.226Z,8.00
2018-01-22T08:52:32.687Z,8.10
2018-01-22T08:55:00.171Z,9.15
2018-01-22T08:57:26.912Z,9.20
2018-01-22T08:59:53.638Z,9.15
2018-01-22T09:02:21.092Z,10.30
2018-01-22T09:04:48.529Z,9.13
2018-01-22T09:07:15.207Z,7.75
2018-01-22T09:09:41.995Z,8.13
2018-01-22T09:12:09.709Z,7.07
2018-01-22T09:14:37.148Z,6.40
2018-01-22T09:17:03.978Z,7.07
2018-01-22T09:19:30.699Z,6.90
2018-01-22T09:21:57.388Z,5.83
2018-01-22T09:24:24.122Z,7.23
2018-01-22T09:26:50.986Z,7.73
2018-01-22T09:29:17.723Z,8.07
2018-01-22T09:31:44.442Z,7.07
2018-01-22T09:34:11.119Z,7.10
2018-01-22T09:36:38.587Z,7.47
2018-01-22T09:39:06.070Z,7.90
2018-01-22T09:41:32.775Z,7.50
2018-01-22T09:43:59.436Z,7.30
2018-01-22T09:46:26.915Z,8.10
2018-01-22T09:48:53.684Z,7.30
2018-01-22T09:51:20.356Z,7.30
2018-01-22T09:53:47.063Z,8.27
2018-01-22T09:56:13.718Z,6.90
2018-01-22T09:58:40.422Z,6.77
2018-01-22T10:01:07.864Z,8.57
2018-01-22T10:03:34.568Z,6.93
2018-01-22T10:06:02.030Z,10.67
2018-01-22T10:08:28.758Z,8.60
2018-01-22T10:10:55.457Z,8.70
2018-01-22T10:13:23.862Z,7.17
2018-01-22T10:15:53.364Z,6.90
2018-01-22T10:18:21.663Z,7.77
2018-01-22T10:20:49.985Z,7.30
2018-01-22T10:23:16.722Z,5.90
2018-01-22T10:25:43.389Z,6.60
2018-01-22T10:28:10.804Z,5.47
2018-01-22T10:30:37.520Z,6.50
2018-01-22T10:33:11.862Z,6.40
2018-01-22T10:35:38.578Z,4.47
2018-01-22T10:38:06.016Z,5.70
2018-01-22T10:40:32.725Z,6.83
2018-01-22T10:42:59.455Z,6.30
2018-01-22T10:45:27.789Z,8.30
2018-01-22T10:47:54.464Z,7.43
2018-01-22T10:50:21.984Z,6.27
2018-01-22T10:52:50.293Z,7.50
2018-01-22T10:55:18.662Z,5.90
2018-01-22T10:57:47.007Z,5.57
2018-01-22T11:00:13.716Z,7.00
2018-01-22T11:02:40.456Z,6.80
2018-01-22T11:05:08.874Z,6.63
2018-01-22T11:07:37.173Z,6.30
2018-01-22T11:10:05.468Z,6.90
2018-01-22T11:12:32.148Z,6.03
2018-01-22T11:14:59.595Z,6.27
2018-01-22T11:17:27.022Z,5.40
2018-01-22T11:19:53.756Z,4.00
2018-01-22T11:22:20.438Z,3.30
2018-01-22T11:24:47.938Z,5.07
2018-01-22T11:27:14.629Z,5.57
2018-01-22T11:29:41.400Z,5.50
2018-01-22T11:32:08.836Z,5.13
2018-01-22T11:34:35.553Z,5.70
2018-01-22T11:37:02.238Z,6.20
2018-01-22T11:39:29.662Z,5.80
2018-01-22T11:41:56.354Z,5.77
2018-01-22T11:44:23.767Z,5.37
2018-01-22T11:46:50.495Z,6.63
2018-01-22T11:49:17.259Z,5.97
2018-01-22T11:51:43.903Z,5.60
2018-01-22T11:54:10.573Z,5.40
2018-01-22T11:56:38.059Z,4.77
2018-01-22T11:59:06.378Z,5.80
2018-01-22T12:01:33.855Z,5.50
2018-01-22T12:04:00.530Z,4.83
2018-01-22T12:06:28.046Z,4.97
2018-01-22T12:08:54.772Z,5.03
2018-01-22T12:11:21.516Z,5.10
2018-01-22T12:13:49.147Z,5.87
2018-01-22T12:16:16.584Z,5.90
2018-01-22T12:18:43.401Z,6.20
2018-01-22T12:21:11.734Z,6.63
2018-01-22T12:23:39.147Z,6.70
2018-01-22T12:26:05.853Z,7.70
2018-01-22T12:28:34.187Z,6.57
2018-01-22T12:31:02.636Z,5.70
2018-01-22T12:33:29.815Z,6.50
2018-01-22T12:35:56.517Z,7.20
2018-01-22T12:38:23.214Z,6.40
2018-01-22T12:40:49.936Z,7.13
2018-01-22T12:43:16.641Z,6.13
2018-01-22T12:45:43.349Z,6.63
2018-01-22T12:48:10.129Z,7.23
2018-01-22T12:50:37.894Z,7.33
2018-01-22T12:53:04.640Z,7.20
2018-01-22T12:55:31.366Z,6.20
2018-01-22T12:57:58.838Z,7.53
2018-01-22T13:00:25.535Z,7.93
2018-01-22T13:02:52.283Z,7.17
2018-01-22T13:05:18.942Z,8.10
2018-01-22T13:07:46.790Z,7.27
2018-01-22T13:10:13.543Z,8.10
2018-01-22T13:12:43.601Z,8.27
2018-01-22T13:15:11.046Z,8.77
2018-01-22T13:17:38.515Z,8.30
2018-01-22T13:20:05.972Z,8.07
2018-01-22T13:22:33.469Z,8.30
2018-01-22T13:25:00.277Z,7.95
2018-01-22T13:27:27.725Z,8.00
2018-01-22T13:29:55.223Z,7.35
2018-01-22T13:32:21.993Z,8.60
2018-01-22T13:34:48.759Z,8.13
2018-01-22T13:37:15.452Z,8.35
2018-01-22T13:39:42.165Z,9.07
2018-01-22T13:42:08.912Z,8.27
2018-01-22T13:44:35.654Z,10.15
2018-01-22T13:47:02.393Z,9.02
2018-01-22T13:49:29.086Z,10.05
2018-01-22T13:51:59.877Z,9.15
2018-01-22T13:54:26.712Z,8.93
2018-01-22T13:56:53.402Z,9.32
2018-01-22T13:59:20.084Z,9.02
2018-01-22T14:01:46.800Z,8.38
2018-01-22T14:04:13.530Z,8.27
2018-01-22T14:06:40.205Z,7.97
2018-01-22T14:09:06.893Z,9.43
2018-01-22T14:11:33.574Z,8.60
2018-01-22T14:14:01.191Z,7.78
2018-01-22T14:16:27.905Z,8.00
2018-01-22T14:18:54.587Z,7.45
2018-01-22T14:21:21.304Z,8.20
2018-01-22T14:23:47.993Z,8.00
2018-01-22T14:26:17.534Z,8.27
2018-01-22T14:28:44.217Z,9.70
2018-01-22T14:31:12.054Z,8.85
2018-01-22T14:33:38.722Z,9.45
2018-01-22T14:36:05.445Z,8.70
2018-01-22T14:38:32.204Z,9.32
2018-01-22T14:40:58.998Z,8.95
2018-01-22T14:43:25.708Z,8.55
2018-01-22T14:45:52.437Z,10.57
2018-01-22T14:48:19.150Z,9.57
2018-01-22T14:50:45.888Z,9.52
2018-01-22T14:53:12.602Z,9.60
2018-01-22T14:55:40.003Z,9.25
2018-01-22T14:58:06.677Z,9.45
2018-01-22T15:00:33.395Z,9.38
2018-01-22T15:03:00.118Z,9.70
2018-01-22T15:05:26.878Z,9.45
2018-01-22T15:07:53.616Z,9.57
2018-01-22T15:10:20.329Z,9.80
2018-01-22T15:12:47.749Z,8.60
2018-01-22T15:15:14.489Z,8.75
2018-01-22T15:17:41.163Z,8.60
2018-01-22T15:20:08.748Z,10.07
2018-01-22T15:22:35.501Z,10.00
2018-01-22T15:25:02.285Z,9.25
2018-01-22T15:27:29.010Z,10.15
2018-01-22T15:29:55.801Z,9.93
2018-01-22T15:32:23.300Z,9.65
2018-01-22T15:34:51.098Z,9.77
2018-01-22T15:37:17.818Z,10.10
2018-01-22T15:39:44.498Z,10.10
2018-01-22T15:42:11.173Z,9.65
2018-01-22T15:44:38.628Z,10.40
2018-01-22T15:47:06.057Z,11.45
2018-01-22T15:49:32.739Z,10.15
2018-01-22T15:52:00.197Z,10.13
2018-01-22T15:54:27.595Z,9.50
2018-01-22T15:56:54.283Z,9.40
2018-01-22T15:59:21.023Z,9.70
2018-01-22T16:01:47.817Z,11.20
2018-01-22T16:04:14.521Z,11.75
2018-01-22T16:06:41.291Z,9.48
2018-01-22T16:09:08.784Z,10.38
2018-01-22T16:11:35.473Z,12.55
2018-01-22T16:14:02.205Z,11.48
2018-01-22T16:16:28.894Z,11.07
2018-01-22T16:18:55.634Z,12.73
2018-01-22T16:21:23.095Z,11.35
2018-01-22T16:23:49.810Z,11.82
2018-01-22T16:26:16.521Z,10.82
2018-01-22T16:28:43.254Z,10.93
2018-01-22T16:31:10.002Z,12.30
2018-01-22T16:33:36.745Z,11.70
2018-01-22T16:36:05.112Z,11.45
2018-01-22T16:38:33.496Z,12.40
2018-01-22T16:41:02.960Z,11.02
2018-01-22T16:43:31.317Z,12.07
2018-01-22T16:45:59.653Z,10.77
2018-01-22T16:48:27.981Z,11.18
2018-01-22T16:50:56.471Z,11.75
2018-01-22T16:53:24.927Z,11.32
2018-01-22T16:55:53.322Z,11.50
2018-01-22T16:58:21.709Z,12.75
2018-01-22T17:00:50.164Z,11.18
2018-01-22T17:03:30.797Z,12.27
2018-01-22T17:06:01.699Z,11.50
2018-01-22T17:08:28.419Z,11.77
2018-01-22T17:10:55.195Z,12.10
2018-01-22T17:13:27.167Z,10.70
2018-01-22T17:15:55.790Z,12.15
2018-01-22T17:18:23.292Z,12.15
2018-01-22T17:20:50.103Z,12.30
2018-01-22T17:23:17.696Z,12.43
2018-01-22T17:25:44.378Z,11.98
2018-01-22T17:28:11.108Z,12.37
2018-01-22T17:30:38.952Z,11.57
2018-01-22T17:33:05.757Z,12.57
2018-01-22T17:35:32.448Z,13.05
2018-01-22T17:37:59.197Z,12.52
2018-01-22T17:40:26.049Z,12.37
2018-01-22T17:42:55.050Z,12.65
2018-01-22T17:45:23.886Z,13.07
2018-01-22T17:47:50.617Z,12.63
2018-01-22T17:50:17.325Z,12.52
2018-01-22T17:52:44.034Z,11.80
2018-01-22T17:55:11.485Z,11.55
2018-01-22T17:57:40.020Z,11.77
2018-01-22T18:00:06.782Z,13.50
2018-01-22T18:02:34.525Z,13.62
2018-01-22T18:05:01.208Z,13.27
2018-01-22T18:07:27.916Z,13.23
2018-01-22T18:09:54.615Z,13.30
2018-01-22T18:12:23.195Z,13.23
2018-01-22T18:14:49.923Z,13.70
2018-01-22T18:17:16.816Z,15.48
2018-01-22T18:19:44.195Z,13.70
2018-01-22T18:22:12.003Z,19.98
2018-01-22T18:24:39.872Z,16.87
2018-01-22T18:27:07.432Z,16.37
2018-01-22T18:29:47.750Z,14.43
2018-01-22T18:32:14.486Z,13.07
2018-01-22T18:34:41.204Z,15.30
2018-01-22T18:37:08.655Z,14.93
2018-01-22T18:39:38.672Z,13.70
2018-01-22T18:42:05.458Z,14.98
2018-01-22T18:44:32.197Z,15.25
2018-01-22T18:46:58.956Z,13.77
2018-01-22T18:49:25.647Z,14.40
2018-01-22T18:51:52.366Z,14.23
2018-01-22T18:54:22.930Z,14.23
2018-01-22T18:56:49.693Z,13.00
2018-01-22T18:59:17.138Z,13.98
2018-01-22T19:01:43.829Z,14.98
2018-01-22T19:04:10.585Z,15.93
2018-01-22T19:06:37.400Z,14.50
2018-01-22T19:09:11.365Z,14.87
2018-01-22T19:11:38.275Z,16.35
2018-01-22T19:14:05.137Z,15.45
2018-01-22T19:16:32.872Z,14.05
2018-01-22T19:19:04.502Z,14.85
2018-01-22T19:21:31.286Z,14.15
2018-01-22T19:24:00.138Z,13.90
2018-01-22T19:26:26.879Z,14.55
2018-01-22T19:28:54.112Z,14.87
2018-01-22T19:31:20.860Z,14.45
2018-01-22T19:33:47.571Z,14.27
2018-01-22T19:36:14.269Z,14.95
2018-01-22T19:38:41.058Z,15.95
2018-01-22T19:41:08.022Z,14.27
2018-01-22T19:43:35.291Z,15.90
2018-01-22T19:46:02.196Z,18.00
2018-01-22T19:48:29.690Z,15.18
2018-01-22T19:50:56.418Z,16.30
2018-01-22T19:53:23.305Z,15.50
2018-01-22T19:55:50.028Z,18.05
2018-01-22T19:58:16.798Z,17.05
2018-01-22T20:00:43.800Z,18.87
2018-01-22T20:03:11.192Z,15.20
2018-01-22T20:05:37.968Z,16.85
2018-01-22T20:08:04.818Z,16.05
2018-01-22T20:10:31.523Z,15.25
2018-01-22T20:12:58.268Z,16.83
2018-01-22T20:15:24.955Z,15.88
2018-01-22T20:17:52.691Z,14.85
2018-01-22T20:20:19.364Z,15.77
2018-01-22T20:22:46.092Z,15.63
2018-01-22T20:25:13.038Z,16.80
2018-01-22T20:27:39.787Z,18.42
2018-01-22T20:30:06.604Z,17.83
2018-01-22T20:32:33.320Z,18.42
2018-01-22T20:35:00.050Z,17.67
2018-01-22T20:37:27.537Z,17.77
2018-01-22T20:39:54.295Z,17.75
2018-01-22T20:42:21.042Z,15.93
2018-01-22T20:44:47.766Z,16.85
2018-01-22T20:47:14.547Z,16.85
2018-01-22T20:49:41.510Z,16.23
2018-01-22T20:52:08.277Z,16.73
2018-01-22T20:54:35.713Z,16.55
2018-01-22T20:57:06.103Z,15.75
2018-01-22T20:59:32.905Z,18.10
2018-01-22T21:02:00.451Z,16.15
2018-01-22T21:04:27.188Z,16.62
2018-01-22T21:06:53.919Z,15.55
2018-01-22T21:09:20.619Z,15.18
2018-01-22T21:11:51.471Z,17.02
2018-01-22T21:14:28.814Z,15.27
2018-01-22T21:16:55.674Z,16.37
2018-01-22T21:19:22.384Z,16.08
2018-01-22T21:21:49.087Z,16.52
2018-01-22T21:24:16.529Z,16.65
2018-01-22T21:26:43.230Z,16.33
2018-01-22T21:29:09.990Z,16.95
2018-01-22T21:31:36.717Z,15.95
2018-01-22T21:34:03.545Z,16.00
2018-01-22T21:36:43.251Z,15.70
2018-01-22T21:39:15.225Z,15.70
2018-01-22T21:41:43.994Z,15.98
2018-01-22T21:44:10.809Z,16.02
2018-01-22T21:46:37.530Z,16.75
2018-01-22T21:49:04.247Z,15.77
2018-01-22T21:51:41.434Z,16.08
2018-01-22T21:54:15.121Z,17.92
2018-01-22T21:56:45.890Z,15.95
2018-01-22T21:59:13.378Z,15.77
2018-01-22T22:01:40.210Z,16.45
2018-01-22T22:04:07.638Z,15.98
2018-01-22T22:06:43.209Z,17.23
2018-01-22T22:09:10.654Z,18.20
2018-01-22T22:11:43.854Z,17.45
2018-01-22T22:14:12.404Z,19.05
2018-01-22T22:16:40.708Z,19.23
2018-01-22T22:19:07.524Z,20.85
2018-01-22T22:21:34.224Z,16.80
2018-01-22T22:24:01.714Z,17.35
2018-01-22T22:26:28.462Z,16.85
2018-01-22T22:29:05.658Z,19.10
2018-01-22T22:31:32.368Z,17.67
2018-01-22T22:34:03.802Z,18.55
2018-01-22T22:36:37.989Z,18.65
2018-01-22T22:39:15.598Z,18.17
2018-01-22T22:41:42.342Z,20.20
2018-01-22T22:44:09.048Z,18.27
2018-01-22T22:46:35.767Z,18.95
2018-01-22T22:49:05.406Z,21.10
2018-01-22T22:51:39.534Z,20.65
2018-01-22T22:54:06.242Z,19.20
2018-01-22T22:56:33.659Z,21.87
2018-01-22T22:59:00.369Z,19.80
2018-01-22T23:01:27.153Z,20.85
2018-01-22T23:03:53.881Z,21.20
2018-01-22T23:06:20.579Z,19.98
2018-01-22T23:08:54.663Z,20.88
2018-01-22T23:11:22.122Z,19.12
2018-01-22T23:13:48.785Z,20.35
2018-01-22T23:16:15.513Z,19.95
2018-01-22T23:18:42.197Z,21.00
2018-01-22T23:21:33.573Z,19.60
2018-01-22T23:24:00.299Z,19.85
2018-01-22T23:26:29.114Z,20.33
2018-01-22T23:29:03.932Z,21.37
2018-01-22T23:31:30.659Z,21.25
2018-01-22T23:33:57.338Z,20.30
2018-01-22T23:36:24.175Z,20.00
2018-01-22T23:38:50.846Z,19.95
2018-01-22T23:41:17.558Z,18.70
2018-01-22T23:43:44.265Z,20.98
2018-01-22T23:46:10.928Z,24.33
2018-01-22T23:48:37.600Z,20.27
2018-01-22T23:51:04.350Z,22.20
2018-01-22T23:53:31.035Z,20.70
2018-01-22T23:55:57.725Z,20.80
2018-01-22T23:58:24.426Z,19.42
